Карточка аэропорта UOOO

Внимание!
Информация на этой странице в стадии наполнения.
Если вы не увидели какой-то информации, или заметили неточность - пожалуйста сообщите нам!
Спасибо!
Команда RU-STAFF
Название аэропортаАлыкель
Название аэропорта (англ.)Alykel
Превышение574 ft. (175 m.)
Координаты69°19.02', 87°19.02'
Высота перехода1200m
Эшелон переходаQFE>744:FL60;744>QFE>717:FL70;717>QFE:FL80
Коды ответчика5401-5427
Зона ОрВДКрасноярск РПИ (UNKL)
Данные METARUOOO 200730Z 16011MPS 9999 SCT027 M04/M06 Q1007 R19/610260 NOSIG RMK QFE739/0986
Проноз погоды (TAF)UOOO 200454Z 2006/2106 17010G20MPS 6000 -SN BKN016 TEMPO 2009/2012 0700 SN BLSN VV002 BECMG 2012/2014 18015G25MPS 0300 SN BLSN BECMG 2017/2019 1500 -SN BR OVC003 TEMPO 2019/2106 0500 -SN -FZRA FZFG BECMG 2023/2101 18020G28MPS
NOTAMshow/hide NOTAM
AWOS   TABLE

Информация о ВПП

ВПП Длина ВПП (м.) Покрытие Курс ВПП Частота ILS
013430Бетон13109.5
193430Бетон193110.3

Диспетчерские позиции

Позывной Наименование органа УВД Частота
UOOO_GNDНорильск - Руление121.700
UOOO_R_APPНорильск - Круг120.400
UOOO_TWRНорильск - Старт118.300



Спутниковое изображение